Time;durP1;ratioP1;P1;durP2;ratioP2;P2;SDS_P1;SDS_P2;PMS_P1;PMS_P2;Temp;Humidity;BMP_temperature;BMP_pressure;BME280_temperature;BME280_humidity;BME280_pressure;Samples;Min_cycle;Max_cycle;Signal;HPM_P1;HPM_P2
2021/12/06 00:00:46;;;;;;;0.20;0.10;;;;;;;;;;4183397;28;20053;-33
2021/12/06 00:02:49;;;;;;;0.13;0.13;;;;;;;;;;4165395;28;20057;-33
2021/12/06 00:04:51;;;;;;;0.10;0.10;;;;;;;;;;4183178;28;20451;-33
2021/12/06 00:06:55;;;;;;;0.20;0.10;;;;;;;;;;4183307;28;20052;-32
2021/12/06 00:08:56;;;;;;;0.20;0.20;;;;;;;;;;4181473;28;20516;-32
2021/12/06 00:10:58;;;;;;;0.10;0.10;;;;;;;;;;4183102;28;20095;-32
2021/12/06 00:13:00;;;;;;;0.10;0.10;;;;;;;;;;4182896;28;20053;-33
2021/12/06 00:15:01;;;;;;;0.10;0.10;;;;;;;;;;4183047;28;20535;-32
2021/12/06 00:17:16;;;;;;;0.10;0.10;;;;;;;;;;4183213;28;20057;-34
2021/12/06 00:19:17;;;;;;;0.10;0.10;;;;;;;;;;4182917;28;20065;-33
2021/12/06 00:21:21;;;;;;;0.10;0.10;;;;;;;;;;4183194;28;20053;-33
2021/12/06 00:23:22;;;;;;;0.20;0.20;;;;;;;;;;4182358;28;20172;-32
2021/12/06 00:25:23;;;;;;;0.25;0.15;;;;;;;;;;4183082;28;20048;-32
2021/12/06 00:27:25;;;;;;;0.20;0.10;;;;;;;;;;4182995;28;20107;-32
2021/12/06 00:29:26;;;;;;;0.30;0.20;;;;;;;;;;4182793;28;20493;-33
2021/12/06 00:31:32;;;;;;;0.40;0.20;;;;;;;;;;4182778;28;20417;-40
2021/12/06 00:33:33;;;;;;;0.60;0.25;;;;;;;;;;4182820;28;20076;-41
2021/12/06 00:35:34;;;;;;;0.10;0.10;;;;;;;;;;4181392;28;20431;-41
2021/12/06 00:37:42;;;;;;;0.10;0.10;;;;;;;;;;4182405;28;20057;-41
2021/12/06 00:39:46;;;;;;;0.20;0.20;;;;;;;;;;4164431;28;20387;-41
2021/12/06 00:41:47;;;;;;;0.17;0.10;;;;;;;;;;4182721;28;20095;-38
2021/12/06 00:43:49;;;;;;;0.10;0.10;;;;;;;;;;4182355;28;20061;-41
2021/12/06 00:45:50;;;;;;;0.40;0.13;;;;;;;;;;4181269;28;20543;-40
2021/12/06 00:47:51;;;;;;;0.20;0.20;;;;;;;;;;4164536;28;20111;-42
2021/12/06 00:49:53;;;;;;;0.10;0.10;;;;;;;;;;4182410;28;20052;-39
2021/12/06 00:51:54;;;;;;;0.10;0.10;;;;;;;;;;4182412;28;20115;-39
2021/12/06 00:53:55;;;;;;;0.20;0.15;;;;;;;;;;4181642;28;20060;-38
2021/12/06 00:55:57;;;;;;;0.10;0.10;;;;;;;;;;4164515;28;20061;-40
2021/12/06 00:57:59;;;;;;;0.13;0.10;;;;;;;;;;4182430;28;20057;-38
2021/12/06 01:00:00;;;;;;;0.13;0.13;;;;;;;;;;4181087;28;20061;-41
2021/12/06 01:02:02;;;;;;;0.20;0.20;;;;;;;;;;4164596;28;20520;-38
2021/12/06 01:04:07;;;;;;;0.15;0.15;;;;;;;;;;4181162;28;20053;-40
2021/12/06 01:06:10;;;;;;;0.10;0.10;;;;;;;;;;4182464;28;20106;-38
2021/12/06 01:08:11;;;;;;;0.10;0.10;;;;;;;;;;4180393;28;20065;-41
2021/12/06 01:10:12;;;;;;;0.10;0.10;;;;;;;;;;4181963;28;20053;-39
2021/12/06 01:12:15;;;;;;;0.10;0.10;;;;;;;;;;4182247;28;20064;-40
2021/12/06 01:14:16;;;;;;;0.25;0.10;;;;;;;;;;4164224;28;20095;-42
2021/12/06 01:16:19;;;;;;;0.13;0.10;;;;;;;;;;4180723;28;20068;-39
2021/12/06 01:18:22;;;;;;;0.10;0.10;;;;;;;;;;4180674;28;20057;-38
2021/12/06 01:20:27;;;;;;;0.20;0.20;;;;;;;;;;4180720;28;20044;-40
2021/12/06 01:22:44;;;;;;;0.20;0.20;;;;;;;;;;4181001;28;20061;-41
2021/12/06 01:24:57;;;;;;;0.52;0.30;;;;;;;;;;4172081;28;20061;-40
2021/12/06 01:31:43;;;;;;;0.10;0.10;;;;;;;;;;4164344;28;19925;-42
2021/12/06 01:40:43;;;;;;;;;;;;;;;;;;4148261;28;20053;-38
2021/12/06 01:42:45;;;;;;;0.10;0.10;;;;;;;;;;4147442;28;20007;-42
2021/12/06 01:44:53;;;;;;;0.10;0.10;;;;;;;;;;4165116;28;20061;-38
2021/12/06 01:47:00;;;;;;;0.10;0.10;;;;;;;;;;4147874;28;20054;-40
2021/12/06 01:49:02;;;;;;;0.10;0.10;;;;;;;;;;4165083;28;20065;-41
2021/12/06 01:51:03;;;;;;;0.13;0.10;;;;;;;;;;4164833;28;20134;-42
2021/12/06 01:53:04;;;;;;;0.10;0.10;;;;;;;;;;4164261;28;20107;-42
2021/12/06 01:55:10;;;;;;;0.15;0.15;;;;;;;;;;4163791;28;20057;-37
2021/12/06 01:57:11;;;;;;;0.20;0.10;;;;;;;;;;4163238;28;20186;-40
2021/12/06 01:59:13;;;;;;;0.13;0.10;;;;;;;;;;4147171;28;20469;-40
2021/12/06 02:01:15;;;;;;;0.10;0.10;;;;;;;;;;4163441;28;20057;-41
2021/12/06 02:03:17;;;;;;;0.10;0.10;;;;;;;;;;4163727;28;20061;-41
2021/12/06 02:05:21;;;;;;;0.43;0.10;;;;;;;;;;4164674;28;20053;-38
2021/12/06 02:07:24;;;;;;;0.13;0.13;;;;;;;;;;4163397;28;20410;-40
2021/12/06 02:09:29;;;;;;;0.10;0.10;;;;;;;;;;4164182;28;20493;-40
2021/12/06 02:11:39;;;;;;;0.30;0.10;;;;;;;;;;4163611;28;20057;-39
2021/12/06 02:13:50;;;;;;;0.10;0.10;;;;;;;;;;4130745;28;20105;-41
2021/12/06 02:15:54;;;;;;;0.20;0.20;;;;;;;;;;4163505;28;20390;-39
2021/12/06 02:18:13;;;;;;;0.30;0.10;;;;;;;;;;4147060;28;20058;-40
2021/12/06 02:20:23;;;;;;;0.20;0.20;;;;;;;;;;4163400;28;20064;-37
2021/12/06 02:22:26;;;;;;;0.10;0.10;;;;;;;;;;4146991;28;20111;-37
2021/12/06 02:24:31;;;;;;;0.10;0.10;;;;;;;;;;4162657;28;20065;-39
2021/12/06 02:26:32;;;;;;;0.20;0.20;;;;;;;;;;4164751;28;20057;-38
2021/12/06 02:28:34;;;;;;;0.25;0.10;;;;;;;;;;4163367;28;20057;-37
2021/12/06 02:30:35;;;;;;;0.20;0.10;;;;;;;;;;4163381;28;20057;-40
2021/12/06 02:32:37;;;;;;;0.25;0.25;;;;;;;;;;4163078;28;20053;-40
2021/12/06 02:34:42;;;;;;;0.10;0.10;;;;;;;;;;4146873;28;20057;-37
2021/12/06 02:36:45;;;;;;;0.10;0.10;;;;;;;;;;4162907;28;20092;-41
2021/12/06 02:38:47;;;;;;;0.10;0.10;;;;;;;;;;4163751;28;20053;-38
2021/12/06 02:40:48;;;;;;;0.10;0.10;;;;;;;;;;4164212;28;20427;-39
2021/12/06 02:42:49;;;;;;;0.20;0.20;;;;;;;;;;4146588;28;20058;-39
2021/12/06 02:44:51;;;;;;;0.10;0.10;;;;;;;;;;4146772;28;20062;-41
2021/12/06 02:46:53;;;;;;;0.10;0.10;;;;;;;;;;4147046;28;20058;-41
2021/12/06 02:48:57;;;;;;;0.20;0.20;;;;;;;;;;4163022;28;20049;-38
2021/12/06 02:51:00;;;;;;;0.13;0.13;;;;;;;;;;4164433;28;20049;-38
2021/12/06 02:53:02;;;;;;;0.10;0.10;;;;;;;;;;4175370;28;20048;-39
2021/12/06 02:55:21;;;;;;;0.20;0.20;;;;;;;;;;4163019;28;20057;-41
2021/12/06 02:57:33;;;;;;;0.10;0.10;;;;;;;;;;4180349;28;20049;-41
2021/12/06 02:59:35;;;;;;;0.35;0.10;;;;;;;;;;4163087;28;20057;-37
2021/12/06 03:01:46;;;;;;;0.30;0.17;;;;;;;;;;4163084;28;20072;-39
2021/12/06 03:03:47;;;;;;;0.03;0.03;;;;;;;;;;4162867;28;20410;-39
2021/12/06 03:05:52;;;;;;;0.20;0.10;;;;;;;;;;4162829;28;20053;-38
2021/12/06 03:07:59;;;;;;;0.17;0.17;;;;;;;;;;4162348;28;20521;-38
2021/12/06 03:10:04;;;;;;;0.38;0.20;;;;;;;;;;4166033;28;20493;-41
2021/12/06 03:12:07;;;;;;;0.25;0.13;;;;;;;;;;4183863;28;20392;-37
2021/12/06 03:14:13;;;;;;;0.15;0.10;;;;;;;;;;4183734;28;20052;-39
2021/12/06 03:16:15;;;;;;;0.35;0.30;;;;;;;;;;4166367;28;20123;-41
2021/12/06 03:18:17;;;;;;;0.10;0.08;;;;;;;;;;4165964;28;20087;-41
2021/12/06 03:20:18;;;;;;;0.40;0.20;;;;;;;;;;4166023;28;20406;-40
2021/12/06 03:22:20;;;;;;;0.30;0.10;;;;;;;;;;4183947;28;20061;-39
2021/12/06 03:24:26;;;;;;;0.17;0.17;;;;;;;;;;4165554;28;20116;-39
2021/12/06 03:26:28;;;;;;;0.28;0.10;;;;;;;;;;4166025;28;20087;-38
2021/12/06 03:28:35;;;;;;;0.28;0.20;;;;;;;;;;4158896;28;20102;-38
2021/12/06 03:30:38;;;;;;;0.10;0.10;;;;;;;;;;4149564;28;20510;-39
2021/12/06 03:32:39;;;;;;;0.32;0.20;;;;;;;;;;4181903;28;20060;-39
2021/12/06 03:34:44;;;;;;;0.10;0.10;;;;;;;;;;4198854;28;20061;-40
2021/12/06 03:36:46;;;;;;;0.10;0.10;;;;;;;;;;4182281;28;20056;-38
2021/12/06 03:38:50;;;;;;;0.20;0.20;;;;;;;;;;4181947;28;20057;-40
2021/12/06 03:40:53;;;;;;;0.10;0.10;;;;;;;;;;4182512;28;20055;-39
2021/12/06 03:42:55;;;;;;;0.50;0.20;;;;;;;;;;4200079;28;20121;-41
2021/12/06 03:44:56;;;;;;;0.20;0.20;;;;;;;;;;4182242;28;20390;-42
2021/12/06 03:47:21;;;;;;;0.30;0.20;;;;;;;;;;4165765;28;20464;-40
2021/12/06 03:49:23;;;;;;;0.10;0.10;;;;;;;;;;4181731;28;20436;-37
2021/12/06 03:51:24;;;;;;;0.10;0.10;;;;;;;;;;4198899;28;20105;-37
2021/12/06 03:53:28;;;;;;;0.22;0.17;;;;;;;;;;4198320;28;20060;-39
2021/12/06 03:55:30;;;;;;;0.10;0.10;;;;;;;;;;4198661;28;20098;-39
2021/12/06 03:57:31;;;;;;;0.20;0.20;;;;;;;;;;4199686;28;20069;-40
2021/12/06 03:59:33;;;;;;;0.10;0.10;;;;;;;;;;4182178;28;20090;-40
2021/12/06 04:01:35;;;;;;;0.10;0.10;;;;;;;;;;4165667;28;20103;-41
2021/12/06 04:03:37;;;;;;;0.10;0.10;;;;;;;;;;4181807;28;20053;-34
2021/12/06 04:05:39;;;;;;;0.20;0.10;;;;;;;;;;4181976;28;20067;-39
2021/12/06 04:07:41;;;;;;;0.10;0.10;;;;;;;;;;4181527;28;20053;-38
2021/12/06 04:09:42;;;;;;;0.20;0.10;;;;;;;;;;4199497;28;20052;-39
2021/12/06 04:11:45;;;;;;;0.10;0.10;;;;;;;;;;4181864;28;20402;-40
2021/12/06 04:13:47;;;;;;;0.28;0.20;;;;;;;;;;4198192;28;20056;-42
2021/12/06 04:15:48;;;;;;;0.40;0.20;;;;;;;;;;4181699;28;20061;-43
2021/12/06 04:17:50;;;;;;;0.10;0.10;;;;;;;;;;4181760;28;20056;-36
2021/12/06 04:19:51;;;;;;;0.10;0.10;;;;;;;;;;4181512;28;20056;-38
2021/12/06 04:21:52;;;;;;;0.22;0.17;;;;;;;;;;4181726;28;20053;-40
2021/12/06 04:23:54;;;;;;;0.28;0.20;;;;;;;;;;4197539;28;20390;-39
2021/12/06 04:25:55;;;;;;;0.10;0.10;;;;;;;;;;4181903;28;20091;-40
2021/12/06 04:28:04;;;;;;;0.10;0.10;;;;;;;;;;4165409;28;20088;-39
2021/12/06 04:30:07;;;;;;;0.10;0.10;;;;;;;;;;4199255;28;20056;-41
2021/12/06 04:32:10;;;;;;;0.20;0.20;;;;;;;;;;4175374;28;20524;-40
2021/12/06 04:34:12;;;;;;;0.20;0.20;;;;;;;;;;4181348;28;20056;-37
2021/12/06 04:36:14;;;;;;;0.13;0.10;;;;;;;;;;4198022;28;20105;-40
2021/12/06 04:38:16;;;;;;;0.13;0.10;;;;;;;;;;4197274;28;20056;-38
2021/12/06 04:40:18;;;;;;;0.00;0.00;;;;;;;;;;4199611;28;20057;-41
2021/12/06 04:42:20;;;;;;;0.20;0.20;;;;;;;;;;4199438;28;20094;-40
2021/12/06 04:44:22;;;;;;;0.10;0.10;;;;;;;;;;4181186;28;20087;-39
2021/12/06 04:46:23;;;;;;;0.20;0.10;;;;;;;;;;4181331;28;20057;-39
2021/12/06 04:48:25;;;;;;;0.52;0.10;;;;;;;;;;4181046;28;20065;-40
2021/12/06 04:50:28;;;;;;;0.10;0.10;;;;;;;;;;4199155;28;20102;-39
2021/12/06 04:52:30;;;;;;;0.10;0.10;;;;;;;;;;4181063;28;20056;-38
2021/12/06 04:54:36;;;;;;;0.10;0.10;;;;;;;;;;4197367;28;20174;-40
2021/12/06 04:56:46;;;;;;;0.20;0.10;;;;;;;;;;4181402;28;20068;-37
2021/12/06 04:59:22;;;;;;;0.30;0.10;;;;;;;;;;4164894;28;20107;-41
2021/12/06 05:01:28;;;;;;;0.20;0.15;;;;;;;;;;4197521;28;20095;-41
2021/12/06 05:03:33;;;;;;;0.20;0.20;;;;;;;;;;4198635;28;20530;-41
2021/12/06 05:05:40;;;;;;;0.35;0.20;;;;;;;;;;4181040;28;20489;-41
2021/12/06 05:07:54;;;;;;;0.20;0.10;;;;;;;;;;4180580;28;20053;-42
2021/12/06 05:09:56;;;;;;;0.32;0.15;;;;;;;;;;4198721;28;20488;-39
2021/12/06 05:11:58;;;;;;;0.10;0.10;;;;;;;;;;4198691;28;20098;-43
2021/12/06 05:14:03;;;;;;;0.30;0.10;;;;;;;;;;4181000;28;20060;-39
2021/12/06 05:16:05;;;;;;;0.60;0.20;;;;;;;;;;4164403;28;20053;-41
2021/12/06 05:18:07;;;;;;;0.25;0.10;;;;;;;;;;4180571;28;20048;-40
2021/12/06 05:20:09;;;;;;;0.90;0.20;;;;;;;;;;4164443;28;20058;-40
2021/12/06 05:22:10;;;;;;;0.10;0.10;;;;;;;;;;4181961;28;20408;-40
2021/12/06 05:24:11;;;;;;;0.17;0.10;;;;;;;;;;4181275;28;20061;-37
2021/12/06 05:26:13;;;;;;;0.82;0.20;;;;;;;;;;4182041;28;20060;-40
2021/12/06 05:28:17;;;;;;;0.20;0.20;;;;;;;;;;4164358;28;20069;-40
2021/12/06 05:30:23;;;;;;;0.22;0.15;;;;;;;;;;4164124;28;20088;-39
2021/12/06 05:32:27;;;;;;;0.22;0.10;;;;;;;;;;4181144;28;20401;-39
2021/12/06 05:34:37;;;;;;;1.45;0.30;;;;;;;;;;4180503;28;20053;-39
2021/12/06 05:36:38;;;;;;;3.17;0.30;;;;;;;;;;4181544;28;20425;-38
2021/12/06 05:38:40;;;;;;;0.28;0.10;;;;;;;;;;4180969;28;20056;-39
2021/12/06 05:40:43;;;;;;;0.45;0.20;;;;;;;;;;4181839;28;20072;-42
2021/12/06 05:42:45;;;;;;;1.40;0.20;;;;;;;;;;4181393;28;20057;-40
2021/12/06 05:44:46;;;;;;;0.57;0.20;;;;;;;;;;4181450;28;20053;-37
2021/12/06 05:46:47;;;;;;;0.30;0.20;;;;;;;;;;4164187;28;20053;-38
2021/12/06 05:48:48;;;;;;;0.43;0.20;;;;;;;;;;4181292;28;20056;-40
2021/12/06 05:50:49;;;;;;;1.10;0.20;;;;;;;;;;4181277;28;20379;-39
2021/12/06 05:52:54;;;;;;;0.73;0.10;;;;;;;;;;4180659;28;20171;-39
2021/12/06 05:54:55;;;;;;;0.57;0.15;;;;;;;;;;4180212;28;20143;-40
2021/12/06 05:56:57;;;;;;;0.30;0.20;;;;;;;;;;4181514;28;20053;-42
2021/12/06 05:58:58;;;;;;;0.20;0.10;;;;;;;;;;4181534;28;20053;-41
2021/12/06 06:01:00;;;;;;;0.35;0.20;;;;;;;;;;4163547;28;20502;-41
2021/12/06 06:03:03;;;;;;;0.70;0.35;;;;;;;;;;4181156;28;20064;-41
2021/12/06 06:05:05;;;;;;;0.10;0.10;;;;;;;;;;4181200;28;20103;-38
2021/12/06 06:07:06;;;;;;;0.20;0.10;;;;;;;;;;4181196;28;20053;-39
2021/12/06 06:09:08;;;;;;;0.50;0.20;;;;;;;;;;4179238;28;20408;-40
2021/12/06 06:11:09;;;;;;;0.10;0.10;;;;;;;;;;4181017;28;20122;-38
2021/12/06 06:13:11;;;;;;;0.77;0.20;;;;;;;;;;4180977;28;20056;-41
2021/12/06 06:15:12;;;;;;;0.20;0.10;;;;;;;;;;4181228;28;20057;-40
2021/12/06 06:17:15;;;;;;;0.20;0.20;;;;;;;;;;4181082;28;20049;-39
2021/12/06 06:19:22;;;;;;;0.20;0.10;;;;;;;;;;4175754;28;20080;-42
2021/12/06 06:21:24;;;;;;;0.10;0.10;;;;;;;;;;4153942;28;20104;-39
2021/12/06 06:23:26;;;;;;;0.20;0.20;;;;;;;;;;4158418;28;20049;-42
2021/12/06 06:25:28;;;;;;;0.73;0.20;;;;;;;;;;4180523;28;20057;-41
2021/12/06 06:27:29;;;;;;;0.60;0.10;;;;;;;;;;4183382;28;20068;-42
2021/12/06 06:29:31;;;;;;;0.40;0.20;;;;;;;;;;4166278;28;20064;-41
2021/12/06 06:31:32;;;;;;;0.13;0.13;;;;;;;;;;4157930;28;20058;-39
2021/12/06 06:33:33;;;;;;;0.63;0.30;;;;;;;;;;4179365;28;20064;-40
2021/12/06 06:35:35;;;;;;;0.20;0.10;;;;;;;;;;4170674;28;20050;-41
2021/12/06 06:37:36;;;;;;;0.45;0.20;;;;;;;;;;4176130;28;20053;-40
2021/12/06 06:39:38;;;;;;;0.20;0.20;;;;;;;;;;4179150;28;20107;-41
2021/12/06 06:41:39;;;;;;;2.08;0.28;;;;;;;;;;4167506;28;20057;-39
2021/12/06 06:43:40;;;;;;;0.30;0.28;;;;;;;;;;4176802;28;20115;-39
2021/12/06 06:45:42;;;;;;;0.95;0.25;;;;;;;;;;4161882;28;20212;-42
2021/12/06 06:47:43;;;;;;;0.43;0.30;;;;;;;;;;4177861;28;20370;-38
2021/12/06 06:49:45;;;;;;;0.63;0.20;;;;;;;;;;4176509;28;20084;-40
2021/12/06 06:51:46;;;;;;;0.50;0.30;;;;;;;;;;4173051;28;20072;-41
2021/12/06 06:53:47;;;;;;;0.80;0.20;;;;;;;;;;4173589;28;20068;-41
2021/12/06 06:55:49;;;;;;;1.00;0.20;;;;;;;;;;4177628;28;20053;-41
2021/12/06 06:57:51;;;;;;;0.75;0.25;;;;;;;;;;4177374;28;20547;-41
2021/12/06 06:59:52;;;;;;;0.30;0.20;;;;;;;;;;4178640;28;20045;-40
2021/12/06 07:01:53;;;;;;;0.35;0.25;;;;;;;;;;4183006;28;20056;-39
2021/12/06 07:03:54;;;;;;;0.20;0.20;;;;;;;;;;4162440;28;20057;-37
2021/12/06 07:05:55;;;;;;;2.30;0.52;;;;;;;;;;4182885;28;20087;-38
2021/12/06 07:07:57;;;;;;;0.77;0.40;;;;;;;;;;4182258;28;20056;-40
2021/12/06 07:09:58;;;;;;;1.27;0.30;;;;;;;;;;4165140;28;20049;-42
2021/12/06 07:12:00;;;;;;;0.60;0.28;;;;;;;;;;4172328;28;20045;-37
2021/12/06 07:14:02;;;;;;;1.15;0.20;;;;;;;;;;4161523;28;20485;-40
2021/12/06 07:16:06;;;;;;;1.25;0.55;;;;;;;;;;4164087;28;20049;-39
2021/12/06 07:18:07;;;;;;;0.77;0.43;;;;;;;;;;4172687;28;20049;-41
2021/12/06 07:20:10;;;;;;;3.33;0.65;;;;;;;;;;4172724;28;20053;-41
2021/12/06 07:22:11;;;;;;;1.65;0.77;;;;;;;;;;4149951;28;20123;-38
2021/12/06 07:24:12;;;;;;;0.50;0.38;;;;;;;;;;4165193;28;20122;-40
2021/12/06 07:26:15;;;;;;;2.67;0.50;;;;;;;;;;4166460;28;20057;-42
2021/12/06 07:28:16;;;;;;;1.50;0.43;;;;;;;;;;4158283;28;20056;-36
2021/12/06 07:30:19;;;;;;;1.58;0.40;;;;;;;;;;4160486;28;20465;-41
2021/12/06 07:32:20;;;;;;;2.20;0.40;;;;;;;;;;4158727;28;20062;-45
2021/12/06 07:34:21;;;;;;;1.60;0.40;;;;;;;;;;4166632;28;20541;-41
2021/12/06 07:36:25;;;;;;;1.65;0.50;;;;;;;;;;4169862;28;20068;-41
2021/12/06 07:38:27;;;;;;;1.88;0.70;;;;;;;;;;4170103;28;20163;-39
2021/12/06 07:40:28;;;;;;;1.25;0.43;;;;;;;;;;4170474;28;20052;-41
2021/12/06 07:42:29;;;;;;;0.95;0.63;;;;;;;;;;4167074;28;20049;-39
2021/12/06 07:44:31;;;;;;;2.22;0.50;;;;;;;;;;4169138;28;20056;-42
2021/12/06 07:46:32;;;;;;;1.73;0.50;;;;;;;;;;4168052;28;20095;-43
2021/12/06 07:48:33;;;;;;;1.42;0.50;;;;;;;;;;4166498;28;20536;-39
2021/12/06 07:50:35;;;;;;;1.38;0.52;;;;;;;;;;4168492;28;20118;-41
2021/12/06 07:52:36;;;;;;;0.60;0.50;;;;;;;;;;4158949;28;20194;-42
2021/12/06 07:54:38;;;;;;;1.05;0.50;;;;;;;;;;4148331;28;20112;-42
2021/12/06 07:56:41;;;;;;;2.58;0.52;;;;;;;;;;4159852;28;20065;-43
2021/12/06 07:58:42;;;;;;;0.32;0.32;;;;;;;;;;4165774;28;20041;-40
2021/12/06 08:00:46;;;;;;;0.60;0.35;;;;;;;;;;4163065;28;20103;-43
2021/12/06 08:02:47;;;;;;;1.33;0.50;;;;;;;;;;4166677;28;20316;-41
2021/12/06 08:04:59;;;;;;;1.60;0.80;;;;;;;;;;4161747;28;20110;-42
2021/12/06 08:07:01;;;;;;;2.53;0.47;;;;;;;;;;4157751;28;20061;-42
2021/12/06 08:09:02;;;;;;;1.88;0.70;;;;;;;;;;4155325;28;20063;-42
2021/12/06 08:11:12;;;;;;;0.93;0.57;;;;;;;;;;4168125;28;20041;-42
2021/12/06 08:13:18;;;;;;;1.15;0.55;;;;;;;;;;4146522;28;20053;-37
2021/12/06 08:15:19;;;;;;;1.20;0.47;;;;;;;;;;4168708;28;20088;-41
2021/12/06 08:17:20;;;;;;;0.75;0.50;;;;;;;;;;4160100;28;20117;-38
2021/12/06 08:19:21;;;;;;;0.65;0.55;;;;;;;;;;4166043;28;21086;-42
2021/12/06 08:21:23;;;;;;;1.42;0.73;;;;;;;;;;4145273;28;20097;-41
2021/12/06 08:23:25;;;;;;;4.25;0.43;;;;;;;;;;4144786;28;20362;-41
2021/12/06 08:25:26;;;;;;;2.05;0.60;;;;;;;;;;4164456;28;20099;-38
2021/12/06 08:27:27;;;;;;;2.05;0.43;;;;;;;;;;4136045;28;20165;-38
2021/12/06 08:29:29;;;;;;;1.08;0.55;;;;;;;;;;4164614;28;20184;-39
2021/12/06 08:31:30;;;;;;;1.88;0.60;;;;;;;;;;4166756;28;20766;-43
2021/12/06 08:33:32;;;;;;;0.30;0.30;;;;;;;;;;4161997;28;20118;-40
2021/12/06 08:35:39;;;;;;;0.68;0.52;;;;;;;;;;4164812;28;20052;-42
2021/12/06 08:37:40;;;;;;;0.52;0.50;;;;;;;;;;4157250;28;20052;-38
2021/12/06 08:39:41;;;;;;;0.50;0.40;;;;;;;;;;4165259;28;20057;-39
2021/12/06 08:41:42;;;;;;;2.03;0.60;;;;;;;;;;4159712;28;20150;-41
2021/12/06 08:43:44;;;;;;;0.75;0.45;;;;;;;;;;4150666;28;20107;-41
2021/12/06 08:45:51;;;;;;;3.47;0.47;;;;;;;;;;4160272;28;20056;-43
2021/12/06 08:47:53;;;;;;;1.98;0.50;;;;;;;;;;4144451;28;20061;-43
2021/12/06 08:49:55;;;;;;;1.15;0.50;;;;;;;;;;4155093;28;20061;-41
2021/12/06 08:51:57;;;;;;;1.20;0.65;;;;;;;;;;4157411;28;20444;-41
2021/12/06 08:54:04;;;;;;;0.63;0.43;;;;;;;;;;4161269;28;20067;-41
2021/12/06 08:56:09;;;;;;;1.48;0.70;;;;;;;;;;4133194;28;20074;-42
2021/12/06 08:58:10;;;;;;;1.63;0.55;;;;;;;;;;4161653;28;20115;-42
2021/12/06 09:00:18;;;;;;;1.17;0.55;;;;;;;;;;4160671;28;20103;-42
2021/12/06 09:02:21;;;;;;;0.60;0.45;;;;;;;;;;4149971;28;20061;-41
2021/12/06 09:04:23;;;;;;;0.52;0.45;;;;;;;;;;4144304;28;20061;-42
2021/12/06 09:06:24;;;;;;;2.63;0.47;;;;;;;;;;4127200;28;20351;-43
2021/12/06 09:08:26;;;;;;;0.82;0.63;;;;;;;;;;4161223;28;20103;-39
2021/12/06 09:10:28;;;;;;;3.97;0.75;;;;;;;;;;4160851;28;20060;-43
2021/12/06 09:12:31;;;;;;;0.88;0.47;;;;;;;;;;4164516;28;20179;-42
2021/12/06 09:14:32;;;;;;;1.30;0.68;;;;;;;;;;4164679;28;20057;-37
2021/12/06 09:16:36;;;;;;;1.27;0.43;;;;;;;;;;4162789;28;20426;-39
2021/12/06 09:18:39;;;;;;;2.05;0.40;;;;;;;;;;4172172;28;20062;-44
2021/12/06 09:20:42;;;;;;;2.25;0.47;;;;;;;;;;4144289;28;20041;-44
2021/12/06 09:22:45;;;;;;;0.70;0.50;;;;;;;;;;4162433;28;20088;-43
2021/12/06 09:24:47;;;;;;;0.38;0.38;;;;;;;;;;4164239;28;20441;-44
2021/12/06 09:26:48;;;;;;;0.73;0.43;;;;;;;;;;4147895;28;20068;-43
2021/12/06 09:28:50;;;;;;;1.00;0.40;;;;;;;;;;4149984;28;20131;-43
2021/12/06 09:30:51;;;;;;;0.68;0.40;;;;;;;;;;4154286;28;20094;-43
2021/12/06 09:32:54;;;;;;;0.45;0.40;;;;;;;;;;4160438;28;20053;-43
2021/12/06 09:34:58;;;;;;;0.93;0.43;;;;;;;;;;4162906;28;20086;-42
2021/12/06 09:37:00;;;;;;;1.63;0.52;;;;;;;;;;4160540;28;20049;-40
2021/12/06 09:39:07;;;;;;;0.52;0.50;;;;;;;;;;4148275;28;20062;-42
2021/12/06 09:41:19;;;;;;;0.70;0.50;;;;;;;;;;4168137;28;20099;-42
2021/12/06 09:43:20;;;;;;;1.25;0.40;;;;;;;;;;4160607;28;20072;-42
2021/12/06 09:45:27;;;;;;;0.93;0.60;;;;;;;;;;4145941;28;20116;-39
2021/12/06 09:47:28;;;;;;;0.90;0.52;;;;;;;;;;4159757;28;20725;-44
2021/12/06 09:49:30;;;;;;;0.80;0.30;;;;;;;;;;4157181;28;20052;-43
2021/12/06 09:51:31;;;;;;;0.98;0.60;;;;;;;;;;4149270;28;20223;-43
2021/12/06 09:53:34;;;;;;;2.38;0.40;;;;;;;;;;4161501;28;20057;-42
2021/12/06 09:55:36;;;;;;;1.05;0.65;;;;;;;;;;4167334;28;20497;-42
2021/12/06 09:57:37;;;;;;;2.60;0.50;;;;;;;;;;4163158;28;20496;-42
2021/12/06 09:59:41;;;;;;;2.35;0.30;;;;;;;;;;4159675;28;22044;-44
2021/12/06 10:01:48;;;;;;;0.50;0.40;;;;;;;;;;4159119;28;20049;-44
2021/12/06 10:03:51;;;;;;;0.70;0.50;;;;;;;;;;4164509;28;20113;-42
2021/12/06 10:05:54;;;;;;;1.00;0.45;;;;;;;;;;4167869;28;20053;-44
2021/12/06 10:07:57;;;;;;;0.80;0.40;;;;;;;;;;4161324;28;20056;-43
2021/12/06 10:10:00;;;;;;;0.20;0.20;;;;;;;;;;4153101;28;20104;-42
2021/12/06 10:12:02;;;;;;;0.98;0.57;;;;;;;;;;4167785;28;20497;-44
2021/12/06 10:14:04;;;;;;;5.03;0.57;;;;;;;;;;4161802;28;20064;-43
2021/12/06 10:16:06;;;;;;;0.40;0.35;;;;;;;;;;4160009;28;20057;-44
2021/12/06 10:18:09;;;;;;;0.63;0.40;;;;;;;;;;4155021;28;20041;-43
2021/12/06 10:20:11;;;;;;;0.60;0.45;;;;;;;;;;4153603;28;20551;-42
2021/12/06 10:22:14;;;;;;;0.40;0.30;;;;;;;;;;4165670;28;20045;-41
2021/12/06 10:24:18;;;;;;;0.45;0.20;;;;;;;;;;4161702;28;20061;-43
2021/12/06 10:26:25;;;;;;;1.33;0.70;;;;;;;;;;4166665;28;20056;-41
2021/12/06 10:28:29;;;;;;;1.55;0.50;;;;;;;;;;4149915;28;20061;-42
2021/12/06 10:30:33;;;;;;;0.35;0.35;;;;;;;;;;4164711;28;20053;-41
2021/12/06 10:32:36;;;;;;;0.88;0.50;;;;;;;;;;4162538;28;20123;-40
2021/12/06 10:34:44;;;;;;;0.60;0.30;;;;;;;;;;4157304;28;20142;-41
2021/12/06 10:36:45;;;;;;;1.05;0.65;;;;;;;;;;4165497;28;20056;-42
2021/12/06 10:38:53;;;;;;;0.90;0.50;;;;;;;;;;4166022;28;20072;-43
2021/12/06 10:41:07;;;;;;;0.73;0.63;;;;;;;;;;4164256;28;20052;-42
2021/12/06 10:43:10;;;;;;;0.82;0.40;;;;;;;;;;4157519;28;20061;-37
2021/12/06 10:45:21;;;;;;;2.70;0.50;;;;;;;;;;4161935;28;20154;-41
2021/12/06 10:47:22;;;;;;;1.33;0.35;;;;;;;;;;4155216;28;20057;-40
2021/12/06 10:49:25;;;;;;;0.82;0.55;;;;;;;;;;4162317;28;20114;-40
2021/12/06 10:51:27;;;;;;;0.68;0.40;;;;;;;;;;4162153;28;20056;-39
2021/12/06 10:53:39;;;;;;;0.63;0.35;;;;;;;;;;4161750;28;20445;-41
2021/12/06 10:55:42;;;;;;;0.95;0.30;;;;;;;;;;4161579;28;20111;-41
2021/12/06 10:57:48;;;;;;;0.47;0.38;;;;;;;;;;4145854;28;20049;-43
2021/12/06 10:59:49;;;;;;;0.65;0.47;;;;;;;;;;4167394;28;20490;-39
2021/12/06 11:01:53;;;;;;;1.13;0.50;;;;;;;;;;4168730;28;20064;-42
2021/12/06 11:03:55;;;;;;;1.25;0.50;;;;;;;;;;4168629;28;20074;-40
2021/12/06 11:06:10;;;;;;;0.40;0.40;;;;;;;;;;4165957;28;20482;-42
2021/12/06 11:08:14;;;;;;;0.63;0.40;;;;;;;;;;4168015;28;20057;-38
2021/12/06 11:10:23;;;;;;;0.68;0.50;;;;;;;;;;4169936;28;20060;-39
2021/12/06 11:12:26;;;;;;;1.13;0.68;;;;;;;;;;4171357;28;20048;-42
2021/12/06 11:14:40;;;;;;;0.80;0.50;;;;;;;;;;4166946;28;20092;-39
2021/12/06 11:16:43;;;;;;;0.30;0.22;;;;;;;;;;4158016;28;20061;-42
2021/12/06 11:18:51;;;;;;;2.88;0.30;;;;;;;;;;4177222;28;20053;-41
2021/12/06 11:20:52;;;;;;;0.50;0.40;;;;;;;;;;4166216;28;20049;-43
2021/12/06 11:23:04;;;;;;;0.90;0.40;;;;;;;;;;4175713;28;20103;-42
2021/12/06 11:25:08;;;;;;;0.25;0.25;;;;;;;;;;4174790;28;20053;-43
2021/12/06 11:27:20;;;;;;;0.73;0.40;;;;;;;;;;4168580;28;20061;-44
2021/12/06 11:29:35;;;;;;;0.35;0.35;;;;;;;;;;4172139;28;20057;-42
2021/12/06 11:31:37;;;;;;;0.60;0.30;;;;;;;;;;4178715;28;20111;-43
2021/12/06 11:33:38;;;;;;;0.30;0.30;;;;;;;;;;4174557;28;20410;-44
2021/12/06 11:35:39;;;;;;;0.30;0.30;;;;;;;;;;4165198;28;20072;-42
2021/12/06 11:37:42;;;;;;;2.85;0.32;;;;;;;;;;4174488;28;20060;-43
2021/12/06 11:39:46;;;;;;;1.35;0.50;;;;;;;;;;4175975;28;20053;-43
2021/12/06 11:41:54;;;;;;;1.30;0.47;;;;;;;;;;4163292;28;20049;-42
2021/12/06 11:43:56;;;;;;;0.47;0.28;;;;;;;;;;4169879;28;20054;-42
2021/12/06 11:45:58;;;;;;;1.30;0.50;;;;;;;;;;4172857;28;20059;-42
2021/12/06 11:48:16;;;;;;;1.00;0.70;;;;;;;;;;4173905;28;20053;-42
2021/12/06 11:50:17;;;;;;;1.95;0.55;;;;;;;;;;4173900;28;20075;-40
2021/12/06 11:52:31;;;;;;;1.73;0.50;;;;;;;;;;4176000;28;20688;-43
2021/12/06 11:54:44;;;;;;;0.57;0.40;;;;;;;;;;4172900;28;20115;-41
2021/12/06 11:56:48;;;;;;;0.28;0.20;;;;;;;;;;4171815;28;20061;-44
2021/12/06 11:58:59;;;;;;;1.10;0.40;;;;;;;;;;4158420;28;20453;-44
2021/12/06 12:01:10;;;;;;;0.95;0.60;;;;;;;;;;4173752;28;20049;-43
2021/12/06 12:03:12;;;;;;;3.17;0.60;;;;;;;;;;4173405;28;20110;-40
2021/12/06 12:05:13;;;;;;;0.65;0.30;;;;;;;;;;4169071;28;20056;-43
2021/12/06 12:07:15;;;;;;;0.50;0.40;;;;;;;;;;4172503;28;20056;-42
2021/12/06 12:09:26;;;;;;;1.08;0.60;;;;;;;;;;4172189;28;20057;-43
2021/12/06 12:11:27;;;;;;;0.52;0.52;;;;;;;;;;4172006;28;20053;-42
2021/12/06 12:13:32;;;;;;;1.00;0.40;;;;;;;;;;4173334;28;20056;-42
2021/12/06 12:15:34;;;;;;;0.65;0.50;;;;;;;;;;4174989;28;20080;-43
2021/12/06 12:17:35;;;;;;;1.15;0.60;;;;;;;;;;4177615;28;20123;-43
2021/12/06 12:19:39;;;;;;;0.85;0.50;;;;;;;;;;4176722;28;20527;-43
2021/12/06 12:21:40;;;;;;;2.35;0.70;;;;;;;;;;4171224;28;20106;-36
2021/12/06 12:23:42;;;;;;;0.50;0.40;;;;;;;;;;4173203;28;20129;-40
2021/12/06 12:26:00;;;;;;;1.10;0.50;;;;;;;;;;4158317;28;20042;-43
2021/12/06 12:28:18;;;;;;;0.52;0.40;;;;;;;;;;4159049;28;20058;-40
2021/12/06 12:30:19;;;;;;;0.20;0.20;;;;;;;;;;4151719;28;20064;-42
2021/12/06 12:32:21;;;;;;;0.50;0.35;;;;;;;;;;4155932;28;20116;-41